sensor_id;sensor_type;location;lat;lon;timestamp;temperature;humidity
70166;SHT30;57541;47.408;18.822;2023-12-29T00:00:23;-0.12;99.99
70166;SHT30;57541;47.408;18.822;2023-12-29T00:00:55;-0.16;99.99
70166;SHT30;57541;47.408;18.822;2023-12-29T00:01:30;-0.12;99.99
70166;SHT30;57541;47.408;18.822;2023-12-29T00:02:03;-0.10;99.99
70166;SHT30;57541;47.408;18.822;2023-12-29T00:02:35;-0.10;99.99
70166;SHT30;57541;47.408;18.822;2023-12-29T00:03:06;-0.05;99.99
70166;SHT30;57541;47.408;18.822;2023-12-29T00:03:38;-0.07;99.99
70166;SHT30;57541;47.408;18.822;2023-12-29T00:04:10;-0.01;99.99
70166;SHT30;57541;47.408;18.822;2023-12-29T00:04:42;-0.12;99.99
70166;SHT30;57541;47.408;18.822;2023-12-29T00:05:14;-0.16;99.99
70166;SHT30;57541;47.408;18.822;2023-12-29T00:05:45;-0.12;99.99
70166;SHT30;57541;47.408;18.822;2023-12-29T00:06:20;-0.15;99.99
70166;SHT30;57541;47.408;18.822;2023-12-29T00:06:52;-0.19;99.99
70166;SHT30;57541;47.408;18.822;2023-12-29T00:07:33;-0.23;99.99
70166;SHT30;57541;47.408;18.822;2023-12-29T00:08:05;-0.22;99.99
70166;SHT30;57541;47.408;18.822;2023-12-29T00:08:37;-0.22;99.99
70166;SHT30;57541;47.408;18.822;2023-12-29T00:09:09;-0.19;99.99
70166;SHT30;57541;47.408;18.822;2023-12-29T00:09:41;-0.27;99.99
70166;SHT30;57541;47.408;18.822;2023-12-29T00:10:13;-0.19;99.99
70166;SHT30;57541;47.408;18.822;2023-12-29T00:10:45;-0.25;99.99
70166;SHT30;57541;47.408;18.822;2023-12-29T00:11:20;-0.20;99.99
70166;SHT30;57541;47.408;18.822;2023-12-29T00:11:52;-0.15;99.99
70166;SHT30;57541;47.408;18.822;2023-12-29T00:12:25;-0.17;99.99
70166;SHT30;57541;47.408;18.822;2023-12-29T00:12:57;-0.19;99.99
70166;SHT30;57541;47.408;18.822;2023-12-29T00:13:29;-0.19;99.99
70166;SHT30;57541;47.408;18.822;2023-12-29T00:14:00;-0.20;99.99
70166;SHT30;57541;47.408;18.822;2023-12-29T00:14:33;-0.22;99.99
70166;SHT30;57541;47.408;18.822;2023-12-29T00:15:05;-0.19;99.99
70166;SHT30;57541;47.408;18.822;2023-12-29T00:15:36;-0.25;99.99
70166;SHT30;57541;47.408;18.822;2023-12-29T00:16:09;-0.27;99.99
70166;SHT30;57541;47.408;18.822;2023-12-29T00:16:41;-0.19;99.99
70166;SHT30;57541;47.408;18.822;2023-12-29T00:17:13;-0.13;99.99
70166;SHT30;57541;47.408;18.822;2023-12-29T00:17:45;-0.16;99.99
70166;SHT30;57541;47.408;18.822;2023-12-29T00:18:18;-0.15;99.99
70166;SHT30;57541;47.408;18.822;2023-12-29T00:18:50;-0.09;99.99
70166;SHT30;57541;47.408;18.822;2023-12-29T00:19:22;-0.06;99.99
70166;SHT30;57541;47.408;18.822;2023-12-29T00:19:54;-0.05;99.99
70166;SHT30;57541;47.408;18.822;2023-12-29T00:20:26;-0.06;99.99
70166;SHT30;57541;47.408;18.822;2023-12-29T00:21:11;-0.12;99.99
70166;SHT30;57541;47.408;18.822;2023-12-29T00:21:43;-0.19;99.99
70166;SHT30;57541;47.408;18.822;2023-12-29T00:22:15;-0.17;99.99
70166;SHT30;57541;47.408;18.822;2023-12-29T00:22:47;-0.10;99.99
70166;SHT30;57541;47.408;18.822;2023-12-29T00:23:18;-0.09;99.99
70166;SHT30;57541;47.408;18.822;2023-12-29T00:23:50;-0.06;99.99
70166;SHT30;57541;47.408;18.822;2023-12-29T00:24:22;-0.03;99.99
70166;SHT30;57541;47.408;18.822;2023-12-29T00:24:54;-0.13;99.99
70166;SHT30;57541;47.408;18.822;2023-12-29T00:25:25;-0.20;99.99
70166;SHT30;57541;47.408;18.822;2023-12-29T00:25:57;-0.22;99.99
70166;SHT30;57541;47.408;18.822;2023-12-29T00:26:29;-0.26;99.99
70166;SHT30;57541;47.408;18.822;2023-12-29T00:27:04;-0.27;99.99
70166;SHT30;57541;47.408;18.822;2023-12-29T00:27:35;-0.20;99.99
70166;SHT30;57541;47.408;18.822;2023-12-29T00:28:11;-0.20;99.99
70166;SHT30;57541;47.408;18.822;2023-12-29T00:28:43;-0.29;99.99
70166;SHT30;57541;47.408;18.822;2023-12-29T00:29:15;-0.30;99.99
70166;SHT30;57541;47.408;18.822;2023-12-29T00:29:47;-0.25;99.99
70166;SHT30;57541;47.408;18.822;2023-12-29T00:30:19;-0.19;99.99
70166;SHT30;57541;47.408;18.822;2023-12-29T00:30:51;-0.15;99.99
70166;SHT30;57541;47.408;18.822;2023-12-29T00:31:33;-0.12;99.99
70166;SHT30;57541;47.408;18.822;2023-12-29T00:32:05;-0.07;99.99
70166;SHT30;57541;47.408;18.822;2023-12-29T00:32:37;-0.07;99.99
70166;SHT30;57541;47.408;18.822;2023-12-29T00:33:08;-0.07;99.99
70166;SHT30;57541;47.408;18.822;2023-12-29T00:33:41;0.02;99.99
70166;SHT30;57541;47.408;18.822;2023-12-29T00:34:13;0.06;99.99
70166;SHT30;57541;47.408;18.822;2023-12-29T00:34:45;0.06;99.99
70166;SHT30;57541;47.408;18.822;2023-12-29T00:35:17;0.11;99.99
70166;SHT30;57541;47.408;18.822;2023-12-29T00:35:48;0.11;99.99
70166;SHT30;57541;47.408;18.822;2023-12-29T00:36:20;0.16;99.99
70166;SHT30;57541;47.408;18.822;2023-12-29T00:36:52;0.25;99.99
70166;SHT30;57541;47.408;18.822;2023-12-29T00:37:24;0.16;99.99
70166;SHT30;57541;47.408;18.822;2023-12-29T00:37:56;0.22;99.99
70166;SHT30;57541;47.408;18.822;2023-12-29T00:38:29;0.14;99.99
70166;SHT30;57541;47.408;18.822;2023-12-29T00:39:00;0.11;99.99
70166;SHT30;57541;47.408;18.822;2023-12-29T00:39:32;0.05;99.99
70166;SHT30;57541;47.408;18.822;2023-12-29T00:40:10;0.05;99.99
70166;SHT30;57541;47.408;18.822;2023-12-29T00:40:42;0.12;99.99
70166;SHT30;57541;47.408;18.822;2023-12-29T00:41:14;0.08;99.99
70166;SHT30;57541;47.408;18.822;2023-12-29T00:41:46;0.16;99.99
70166;SHT30;57541;47.408;18.822;2023-12-29T00:42:18;0.09;99.99
70166;SHT30;57541;47.408;18.822;2023-12-29T00:42:49;0.18;99.99
70166;SHT30;57541;47.408;18.822;2023-12-29T00:43:21;0.29;99.99
70166;SHT30;57541;47.408;18.822;2023-12-29T00:43:54;0.32;99.99
70166;SHT30;57541;47.408;18.822;2023-12-29T00:44:26;0.35;99.99
70166;SHT30;57541;47.408;18.822;2023-12-29T00:44:58;0.35;99.99
70166;SHT30;57541;47.408;18.822;2023-12-29T00:45:30;0.35;99.99
70166;SHT30;57541;47.408;18.822;2023-12-29T00:46:04;0.33;99.99
70166;SHT30;57541;47.408;18.822;2023-12-29T00:46:36;0.35;99.99
70166;SHT30;57541;47.408;18.822;2023-12-29T00:47:08;0.39;99.99
70166;SHT30;57541;47.408;18.822;2023-12-29T00:47:40;0.41;99.99
70166;SHT30;57541;47.408;18.822;2023-12-29T00:48:12;0.38;99.99
70166;SHT30;57541;47.408;18.822;2023-12-29T00:48:44;0.39;99.99
70166;SHT30;57541;47.408;18.822;2023-12-29T00:49:16;0.41;99.99
70166;SHT30;57541;47.408;18.822;2023-12-29T00:49:47;0.33;99.99
70166;SHT30;57541;47.408;18.822;2023-12-29T00:50:19;0.36;99.99
70166;SHT30;57541;47.408;18.822;2023-12-29T00:50:51;0.48;99.99
70166;SHT30;57541;47.408;18.822;2023-12-29T00:51:22;0.45;99.99
70166;SHT30;57541;47.408;18.822;2023-12-29T00:51:54;0.52;99.99
70166;SHT30;57541;47.408;18.822;2023-12-29T00:52:26;0.56;99.99
70166;SHT30;57541;47.408;18.822;2023-12-29T00:52:58;0.55;99.99
70166;SHT30;57541;47.408;18.822;2023-12-29T00:53:30;0.57;99.99
70166;SHT30;57541;47.408;18.822;2023-12-29T00:54:03;0.60;99.99
70166;SHT30;57541;47.408;18.822;2023-12-29T00:54:35;0.57;99.99
70166;SHT30;57541;47.408;18.822;2023-12-29T00:55:07;0.56;99.99
70166;SHT30;57541;47.408;18.822;2023-12-29T00:55:39;0.49;99.99
70166;SHT30;57541;47.408;18.822;2023-12-29T00:56:11;0.43;99.99
70166;SHT30;57541;47.408;18.822;2023-12-29T00:56:49;0.41;99.99
70166;SHT30;57541;47.408;18.822;2023-12-29T00:57:21;0.39;99.99
70166;SHT30;57541;47.408;18.822;2023-12-29T00:57:53;0.39;99.99
70166;SHT30;57541;47.408;18.822;2023-12-29T00:58:25;0.38;99.99
70166;SHT30;57541;47.408;18.822;2023-12-29T00:58:57;0.41;99.99
70166;SHT30;57541;47.408;18.822;2023-12-29T00:59:29;0.39;99.99
70166;SHT30;57541;47.408;18.822;2023-12-29T01:00:01;0.38;99.99
70166;SHT30;57541;47.408;18.822;2023-12-29T01:00:32;0.41;99.99
70166;SHT30;57541;47.408;18.822;2023-12-29T01:01:07;0.38;99.99
70166;SHT30;57541;47.408;18.822;2023-12-29T01:01:40;0.41;99.99
70166;SHT30;57541;47.408;18.822;2023-12-29T01:02:12;0.43;99.99
70166;SHT30;57541;47.408;18.822;2023-12-29T01:02:44;0.26;99.99
70166;SHT30;57541;47.408;18.822;2023-12-29T01:03:15;0.28;99.99
70166;SHT30;57541;47.408;18.822;2023-12-29T01:03:47;0.35;99.99
70166;SHT30;57541;47.408;18.822;2023-12-29T01:04:19;0.35;99.99
70166;SHT30;57541;47.408;18.822;2023-12-29T01:04:51;0.32;99.99
70166;SHT30;57541;47.408;18.822;2023-12-29T01:05:23;0.26;99.99
70166;SHT30;57541;47.408;18.822;2023-12-29T01:05:55;0.29;99.99
70166;SHT30;57541;47.408;18.822;2023-12-29T01:06:27;0.32;99.99
70166;SHT30;57541;47.408;18.822;2023-12-29T01:06:59;0.33;99.99
70166;SHT30;57541;47.408;18.822;2023-12-29T01:07:30;0.29;99.99
70166;SHT30;57541;47.408;18.822;2023-12-29T01:08:02;0.30;99.99
70166;SHT30;57541;47.408;18.822;2023-12-29T01:08:34;0.21;99.99
70166;SHT30;57541;47.408;18.822;2023-12-29T01:09:07;0.24;99.99
70166;SHT30;57541;47.408;18.822;2023-12-29T01:09:40;0.24;99.99
70166;SHT30;57541;47.408;18.822;2023-12-29T01:10:13;0.28;99.99
70166;SHT30;57541;47.408;18.822;2023-12-29T01:10:45;0.25;99.99
70166;SHT30;57541;47.408;18.822;2023-12-29T01:11:16;0.29;99.99
70166;SHT30;57541;47.408;18.822;2023-12-29T01:11:51;0.30;99.99
70166;SHT30;57541;47.408;18.822;2023-12-29T01:12:23;0.33;99.99
70166;SHT30;57541;47.408;18.822;2023-12-29T01:12:55;0.36;99.99
70166;SHT30;57541;47.408;18.822;2023-12-29T01:13:26;0.39;99.99
70166;SHT30;57541;47.408;18.822;2023-12-29T01:13:58;0.45;99.99
70166;SHT30;57541;47.408;18.822;2023-12-29T01:14:30;0.41;99.99
70166;SHT30;57541;47.408;18.822;2023-12-29T01:15:02;0.36;99.99
70166;SHT30;57541;47.408;18.822;2023-12-29T01:15:33;0.33;99.99
70166;SHT30;57541;47.408;18.822;2023-12-29T01:16:05;0.30;99.99
70166;SHT30;57541;47.408;18.822;2023-12-29T01:16:37;0.28;99.99
70166;SHT30;57541;47.408;18.822;2023-12-29T01:17:09;0.28;99.99
70166;SHT30;57541;47.408;18.822;2023-12-29T01:17:41;0.22;99.99
70166;SHT30;57541;47.408;18.822;2023-12-29T01:18:12;0.21;99.99
70166;SHT30;57541;47.408;18.822;2023-12-29T01:18:44;0.22;99.99
70166;SHT30;57541;47.408;18.822;2023-12-29T01:19:19;0.25;99.99
70166;SHT30;57541;47.408;18.822;2023-12-29T01:19:51;0.21;99.99
70166;SHT30;57541;47.408;18.822;2023-12-29T01:20:23;0.22;99.99
70166;SHT30;57541;47.408;18.822;2023-12-29T01:20:55;0.21;99.99
70166;SHT30;57541;47.408;18.822;2023-12-29T01:21:27;0.22;99.99
70166;SHT30;57541;47.408;18.822;2023-12-29T01:21:59;0.21;99.99
70166;SHT30;57541;47.408;18.822;2023-12-29T01:22:31;0.19;99.99
70166;SHT30;57541;47.408;18.822;2023-12-29T01:23:03;0.19;99.99
70166;SHT30;57541;47.408;18.822;2023-12-29T01:23:35;0.24;99.99
70166;SHT30;57541;47.408;18.822;2023-12-29T01:24:07;0.19;99.99
70166;SHT30;57541;47.408;18.822;2023-12-29T01:24:39;0.08;99.99
70166;SHT30;57541;47.408;18.822;2023-12-29T01:25:16;-0.01;99.99
70166;SHT30;57541;47.408;18.822;2023-12-29T01:25:48;-0.03;99.99
70166;SHT30;57541;47.408;18.822;2023-12-29T01:26:20;-0.01;99.99
70166;SHT30;57541;47.408;18.822;2023-12-29T01:26:52;-0.03;99.99
70166;SHT30;57541;47.408;18.822;2023-12-29T01:27:24;0.01;99.99
70166;SHT30;57541;47.408;18.822;2023-12-29T01:27:55;0.02;99.99
70166;SHT30;57541;47.408;18.822;2023-12-29T01:28:27;0.02;99.99
70166;SHT30;57541;47.408;18.822;2023-12-29T01:28:59;0.09;99.99
70166;SHT30;57541;47.408;18.822;2023-12-29T01:29:31;0.14;99.99
70166;SHT30;57541;47.408;18.822;2023-12-29T01:30:02;0.15;99.99
70166;SHT30;57541;47.408;18.822;2023-12-29T01:30:35;0.15;99.99
70166;SHT30;57541;47.408;18.822;2023-12-29T01:31:07;0.16;99.99
70166;SHT30;57541;47.408;18.822;2023-12-29T01:31:40;0.09;99.99
70166;SHT30;57541;47.408;18.822;2023-12-29T01:32:14;-0.02;99.99
70166;SHT30;57541;47.408;18.822;2023-12-29T01:32:45;-0.10;99.99
70166;SHT30;57541;47.408;18.822;2023-12-29T01:33:17;-0.15;99.99
70166;SHT30;57541;47.408;18.822;2023-12-29T01:33:51;-0.09;99.99
70166;SHT30;57541;47.408;18.822;2023-12-29T01:34:23;-0.02;99.99
70166;SHT30;57541;47.408;18.822;2023-12-29T01:34:55;0.02;99.99
70166;SHT30;57541;47.408;18.822;2023-12-29T01:35:26;0.04;99.99
70166;SHT30;57541;47.408;18.822;2023-12-29T01:35:58;0.08;99.99
70166;SHT30;57541;47.408;18.822;2023-12-29T01:36:41;0.06;99.99
70166;SHT30;57541;47.408;18.822;2023-12-29T01:37:14;-0.01;99.99
70166;SHT30;57541;47.408;18.822;2023-12-29T01:37:45;-0.03;99.99
70166;SHT30;57541;47.408;18.822;2023-12-29T01:38:17;-0.06;99.99
70166;SHT30;57541;47.408;18.822;2023-12-29T01:38:49;-0.12;99.99
70166;SHT30;57541;47.408;18.822;2023-12-29T01:39:21;-0.10;99.99
70166;SHT30;57541;47.408;18.822;2023-12-29T01:39:52;-0.12;99.99
70166;SHT30;57541;47.408;18.822;2023-12-29T01:40:24;-0.13;99.99
70166;SHT30;57541;47.408;18.822;2023-12-29T01:40:56;-0.12;99.99
70166;SHT30;57541;47.408;18.822;2023-12-29T01:41:29;-0.13;99.99
70166;SHT30;57541;47.408;18.822;2023-12-29T01:42:01;-0.12;99.99
70166;SHT30;57541;47.408;18.822;2023-12-29T01:42:32;-0.09;99.99
70166;SHT30;57541;47.408;18.822;2023-12-29T01:43:05;-0.01;99.99
70166;SHT30;57541;47.408;18.822;2023-12-29T01:44:32;0.11;99.99
70166;SHT30;57541;47.408;18.822;2023-12-29T01:45:05;0.08;99.99
70166;SHT30;57541;47.408;18.822;2023-12-29T01:45:37;0.11;99.99
70166;SHT30;57541;47.408;18.822;2023-12-29T01:46:25;0.19;99.99
70166;SHT30;57541;47.408;18.822;2023-12-29T01:46:59;0.19;99.99
70166;SHT30;57541;47.408;18.822;2023-12-29T01:47:31;0.14;99.99
70166;SHT30;57541;47.408;18.822;2023-12-29T01:48:03;0.15;99.99
70166;SHT30;57541;47.408;18.822;2023-12-29T01:48:36;0.16;99.99
70166;SHT30;57541;47.408;18.822;2023-12-29T01:49:08;0.14;99.99
70166;SHT30;57541;47.408;18.822;2023-12-29T01:49:40;0.14;99.99
70166;SHT30;57541;47.408;18.822;2023-12-29T01:50:12;0.15;99.99
70166;SHT30;57541;47.408;18.822;2023-12-29T01:50:44;0.11;99.99
70166;SHT30;57541;47.408;18.822;2023-12-29T01:51:17;0.14;99.99
70166;SHT30;57541;47.408;18.822;2023-12-29T01:51:52;0.15;99.99
70166;SHT30;57541;47.408;18.822;2023-12-29T01:52:24;0.12;99.99
70166;SHT30;57541;47.408;18.822;2023-12-29T01:52:56;0.12;99.99
70166;SHT30;57541;47.408;18.822;2023-12-29T01:53:28;0.12;99.99
70166;SHT30;57541;47.408;18.822;2023-12-29T01:54:13;0.15;99.99
70166;SHT30;57541;47.408;18.822;2023-12-29T01:54:46;0.22;99.99
70166;SHT30;57541;47.408;18.822;2023-12-29T01:55:20;0.22;99.99
70166;SHT30;57541;47.408;18.822;2023-12-29T01:55:55;0.30;99.99
70166;SHT30;57541;47.408;18.822;2023-12-29T01:56:27;0.25;99.99
70166;SHT30;57541;47.408;18.822;2023-12-29T01:57:00;0.28;99.99
70166;SHT30;57541;47.408;18.822;2023-12-29T01:57:32;0.30;99.99
70166;SHT30;57541;47.408;18.822;2023-12-29T01:58:06;0.24;99.99
70166;SHT30;57541;47.408;18.822;2023-12-29T01:58:38;0.18;99.99
70166;SHT30;57541;47.408;18.822;2023-12-29T01:59:10;0.18;99.99
70166;SHT30;57541;47.408;18.822;2023-12-29T01:59:55;0.16;99.99
70166;SHT30;57541;47.408;18.822;2023-12-29T02:00:27;0.15;99.99
70166;SHT30;57541;47.408;18.822;2023-12-29T02:01:00;0.21;99.99
70166;SHT30;57541;47.408;18.822;2023-12-29T02:01:33;0.19;99.99
70166;SHT30;57541;47.408;18.822;2023-12-29T02:02:06;0.18;99.99
70166;SHT30;57541;47.408;18.822;2023-12-29T02:02:39;0.16;99.99
70166;SHT30;57541;47.408;18.822;2023-12-29T02:03:11;0.21;99.99
70166;SHT30;57541;47.408;18.822;2023-12-29T02:03:44;0.25;99.99
70166;SHT30;57541;47.408;18.822;2023-12-29T02:04:17;0.28;99.99
70166;SHT30;57541;47.408;18.822;2023-12-29T02:04:49;0.25;99.99
70166;SHT30;57541;47.408;18.822;2023-12-29T02:05:23;0.18;99.99
70166;SHT30;57541;47.408;18.822;2023-12-29T02:05:56;0.15;99.99
70166;SHT30;57541;47.408;18.822;2023-12-29T02:06:29;0.12;99.99
70166;SHT30;57541;47.408;18.822;2023-12-29T02:07:03;0.06;99.99
70166;SHT30;57541;47.408;18.822;2023-12-29T02:07:35;0.14;99.99
70166;SHT30;57541;47.408;18.822;2023-12-29T02:08:07;0.12;99.99
70166;SHT30;57541;47.408;18.822;2023-12-29T02:08:43;0.11;99.99
70166;SHT30;57541;47.408;18.822;2023-12-29T02:09:17;0.14;99.99
70166;SHT30;57541;47.408;18.822;2023-12-29T02:09:48;0.19;99.99
70166;SHT30;57541;47.408;18.822;2023-12-29T02:10:22;0.18;99.99
70166;SHT30;57541;47.408;18.822;2023-12-29T02:10:55;0.24;99.99
70166;SHT30;57541;47.408;18.822;2023-12-29T02:11:27;0.25;99.99
70166;SHT30;57541;47.408;18.822;2023-12-29T02:11:59;0.29;99.99
70166;SHT30;57541;47.408;18.822;2023-12-29T02:12:31;0.28;99.99
70166;SHT30;57541;47.408;18.822;2023-12-29T02:13:03;0.24;99.99
70166;SHT30;57541;47.408;18.822;2023-12-29T02:13:35;0.24;99.99
70166;SHT30;57541;47.408;18.822;2023-12-29T02:14:06;0.25;99.99
70166;SHT30;57541;47.408;18.822;2023-12-29T02:14:38;0.22;99.99
70166;SHT30;57541;47.408;18.822;2023-12-29T02:15:10;0.29;99.99
70166;SHT30;57541;47.408;18.822;2023-12-29T02:15:42;0.22;99.99
70166;SHT30;57541;47.408;18.822;2023-12-29T02:17:31;0.15;99.99
70166;SHT30;57541;47.408;18.822;2023-12-29T02:18:10;0.15;99.99
70166;SHT30;57541;47.408;18.822;2023-12-29T02:18:47;0.06;99.99
70166;SHT30;57541;47.408;18.822;2023-12-29T02:19:37;0.15;99.99
70166;SHT30;57541;47.408;18.822;2023-12-29T02:20:11;0.18;99.99
70166;SHT30;57541;47.408;18.822;2023-12-29T02:20:43;0.12;99.99
70166;SHT30;57541;47.408;18.822;2023-12-29T02:21:15;0.18;99.99
70166;SHT30;57541;47.408;18.822;2023-12-29T02:21:47;0.14;99.99
70166;SHT30;57541;47.408;18.822;2023-12-29T02:22:19;0.12;99.99
70166;SHT30;57541;47.408;18.822;2023-12-29T02:22:51;0.12;99.99
70166;SHT30;57541;47.408;18.822;2023-12-29T02:23:22;0.11;99.99
70166;SHT30;57541;47.408;18.822;2023-12-29T02:23:54;0.14;99.99
70166;SHT30;57541;47.408;18.822;2023-12-29T02:24:26;0.08;99.99
70166;SHT30;57541;47.408;18.822;2023-12-29T02:24:58;0.09;99.99
70166;SHT30;57541;47.408;18.822;2023-12-29T02:25:30;0.08;99.99
70166;SHT30;57541;47.408;18.822;2023-12-29T02:26:08;0.05;99.99
70166;SHT30;57541;47.408;18.822;2023-12-29T02:26:45;0.16;99.99
70166;SHT30;57541;47.408;18.822;2023-12-29T02:27:21;0.16;99.99
70166;SHT30;57541;47.408;18.822;2023-12-29T02:28:04;0.22;99.99
70166;SHT30;57541;47.408;18.822;2023-12-29T02:28:44;0.22;99.99
70166;SHT30;57541;47.408;18.822;2023-12-29T02:29:19;0.26;99.99
70166;SHT30;57541;47.408;18.822;2023-12-29T02:30:11;0.29;99.99
70166;SHT30;57541;47.408;18.822;2023-12-29T02:31:06;0.21;99.99
70166;SHT30;57541;47.408;18.822;2023-12-29T02:31:42;0.25;99.99
70166;SHT30;57541;47.408;18.822;2023-12-29T02:32:18;0.25;99.99
70166;SHT30;57541;47.408;18.822;2023-12-29T02:32:54;0.29;99.99
70166;SHT30;57541;47.408;18.822;2023-12-29T02:33:28;0.32;99.99
70166;SHT30;57541;47.408;18.822;2023-12-29T02:34:02;0.29;99.99
70166;SHT30;57541;47.408;18.822;2023-12-29T02:34:36;0.29;99.99
70166;SHT30;57541;47.408;18.822;2023-12-29T02:35:13;0.33;99.99
70166;SHT30;57541;47.408;18.822;2023-12-29T02:35:46;0.32;99.99
70166;SHT30;57541;47.408;18.822;2023-12-29T02:36:22;0.28;99.99
70166;SHT30;57541;47.408;18.822;2023-12-29T02:36:54;0.35;99.99
70166;SHT30;57541;47.408;18.822;2023-12-29T02:37:27;0.39;99.99
70166;SHT30;57541;47.408;18.822;2023-12-29T02:38:01;0.42;99.99
70166;SHT30;57541;47.408;18.822;2023-12-29T02:38:34;0.49;99.99
70166;SHT30;57541;47.408;18.822;2023-12-29T02:39:06;0.49;99.99
70166;SHT30;57541;47.408;18.822;2023-12-29T02:39:38;0.48;99.99
70166;SHT30;57541;47.408;18.822;2023-12-29T02:40:10;0.50;99.99
70166;SHT30;57541;47.408;18.822;2023-12-29T02:40:43;0.49;99.99
70166;SHT30;57541;47.408;18.822;2023-12-29T02:41:14;0.49;99.99
70166;SHT30;57541;47.408;18.822;2023-12-29T02:41:46;0.48;99.99
70166;SHT30;57541;47.408;18.822;2023-12-29T02:42:18;0.45;99.99
70166;SHT30;57541;47.408;18.822;2023-12-29T02:42:50;0.50;99.99
70166;SHT30;57541;47.408;18.822;2023-12-29T02:43:21;0.56;99.99
70166;SHT30;57541;47.408;18.822;2023-12-29T02:43:53;0.56;99.99
70166;SHT30;57541;47.408;18.822;2023-12-29T02:44:25;0.57;99.99
70166;SHT30;57541;47.408;18.822;2023-12-29T02:44:56;0.57;99.99
70166;SHT30;57541;47.408;18.822;2023-12-29T02:45:28;0.60;99.99
70166;SHT30;57541;47.408;18.822;2023-12-29T02:46:00;0.60;99.99
70166;SHT30;57541;47.408;18.822;2023-12-29T02:46:32;0.66;99.99
70166;SHT30;57541;47.408;18.822;2023-12-29T02:47:04;0.63;99.99
70166;SHT30;57541;47.408;18.822;2023-12-29T02:47:36;0.64;99.99
70166;SHT30;57541;47.408;18.822;2023-12-29T02:48:07;0.56;99.99
70166;SHT30;57541;47.408;18.822;2023-12-29T02:48:39;0.60;99.99
70166;SHT30;57541;47.408;18.822;2023-12-29T02:49:11;0.66;99.99
70166;SHT30;57541;47.408;18.822;2023-12-29T02:49:44;0.39;99.99
70166;SHT30;57541;47.408;18.822;2023-12-29T02:50:16;0.41;99.99
70166;SHT30;57541;47.408;18.822;2023-12-29T02:50:49;0.41;99.99
70166;SHT30;57541;47.408;18.822;2023-12-29T02:51:20;0.43;99.99
70166;SHT30;57541;47.408;18.822;2023-12-29T02:51:52;0.52;99.99
70166;SHT30;57541;47.408;18.822;2023-12-29T02:52:24;0.52;99.99
70166;SHT30;57541;47.408;18.822;2023-12-29T02:52:56;0.57;99.99
70166;SHT30;57541;47.408;18.822;2023-12-29T02:53:28;0.55;99.99
70166;SHT30;57541;47.408;18.822;2023-12-29T02:53:59;0.57;99.99
70166;SHT30;57541;47.408;18.822;2023-12-29T02:54:31;0.56;99.99
70166;SHT30;57541;47.408;18.822;2023-12-29T02:55:03;0.62;99.99
70166;SHT30;57541;47.408;18.822;2023-12-29T02:55:35;0.59;99.99
70166;SHT30;57541;47.408;18.822;2023-12-29T02:56:07;0.62;99.99
70166;SHT30;57541;47.408;18.822;2023-12-29T02:56:38;0.64;99.99
70166;SHT30;57541;47.408;18.822;2023-12-29T02:57:10;0.69;99.99
70166;SHT30;57541;47.408;18.822;2023-12-29T02:57:42;0.77;99.99
70166;SHT30;57541;47.408;18.822;2023-12-29T02:58:14;0.69;99.99
70166;SHT30;57541;47.408;18.822;2023-12-29T02:58:46;0.69;99.99
70166;SHT30;57541;47.408;18.822;2023-12-29T02:59:19;0.69;99.99
70166;SHT30;57541;47.408;18.822;2023-12-29T02:59:51;0.59;99.99
70166;SHT30;57541;47.408;18.822;2023-12-29T03:00:23;0.60;99.99
70166;SHT30;57541;47.408;18.822;2023-12-29T03:00:54;0.52;99.99
70166;SHT30;57541;47.408;18.822;2023-12-29T03:01:26;0.52;99.99
70166;SHT30;57541;47.408;18.822;2023-12-29T03:02:00;0.60;99.99
70166;SHT30;57541;47.408;18.822;2023-12-29T03:02:32;0.64;99.99
70166;SHT30;57541;47.408;18.822;2023-12-29T03:03:04;0.59;99.99
70166;SHT30;57541;47.408;18.822;2023-12-29T03:03:37;0.62;99.99
70166;SHT30;57541;47.408;18.822;2023-12-29T03:04:11;0.59;99.99
70166;SHT30;57541;47.408;18.822;2023-12-29T03:04:44;0.60;99.99
70166;SHT30;57541;47.408;18.822;2023-12-29T03:05:16;0.64;99.99
70166;SHT30;57541;47.408;18.822;2023-12-29T03:05:48;0.66;99.99
70166;SHT30;57541;47.408;18.822;2023-12-29T03:06:19;0.70;99.99
70166;SHT30;57541;47.408;18.822;2023-12-29T03:06:51;0.72;99.99
70166;SHT30;57541;47.408;18.822;2023-12-29T03:07:23;0.73;99.99
70166;SHT30;57541;47.408;18.822;2023-12-29T03:07:54;0.64;99.99
70166;SHT30;57541;47.408;18.822;2023-12-29T03:08:26;0.62;99.99
70166;SHT30;57541;47.408;18.822;2023-12-29T03:08:57;0.66;99.99
70166;SHT30;57541;47.408;18.822;2023-12-29T03:09:29;0.63;99.99
70166;SHT30;57541;47.408;18.822;2023-12-29T03:10:01;0.62;99.99
70166;SHT30;57541;47.408;18.822;2023-12-29T03:10:33;0.62;99.99
70166;SHT30;57541;47.408;18.822;2023-12-29T03:11:05;0.62;99.99
70166;SHT30;57541;47.408;18.822;2023-12-29T03:11:37;0.66;99.99
70166;SHT30;57541;47.408;18.822;2023-12-29T03:12:09;0.63;99.99
70166;SHT30;57541;47.408;18.822;2023-12-29T03:12:41;0.59;99.99
70166;SHT30;57541;47.408;18.822;2023-12-29T03:13:12;0.63;99.99
70166;SHT30;57541;47.408;18.822;2023-12-29T03:13:44;0.70;99.99
70166;SHT30;57541;47.408;18.822;2023-12-29T03:14:16;0.73;99.99
70166;SHT30;57541;47.408;18.822;2023-12-29T03:14:47;0.66;99.99
70166;SHT30;57541;47.408;18.822;2023-12-29T03:15:19;0.67;99.99
70166;SHT30;57541;47.408;18.822;2023-12-29T03:15:51;0.66;99.99
70166;SHT30;57541;47.408;18.822;2023-12-29T03:16:23;0.70;99.99
70166;SHT30;57541;47.408;18.822;2023-12-29T03:16:54;0.69;99.99
70166;SHT30;57541;47.408;18.822;2023-12-29T03:17:26;0.57;99.99
70166;SHT30;57541;47.408;18.822;2023-12-29T03:17:58;0.62;99.99
70166;SHT30;57541;47.408;18.822;2023-12-29T03:18:30;0.59;99.99
70166;SHT30;57541;47.408;18.822;2023-12-29T03:19:02;0.59;99.99
70166;SHT30;57541;47.408;18.822;2023-12-29T03:19:34;0.60;99.99
70166;SHT30;57541;47.408;18.822;2023-12-29T03:20:06;0.62;99.99
70166;SHT30;57541;47.408;18.822;2023-12-29T03:20:39;0.66;99.99
70166;SHT30;57541;47.408;18.822;2023-12-29T03:21:11;0.67;99.99
70166;SHT30;57541;47.408;18.822;2023-12-29T03:21:42;0.66;99.99
70166;SHT30;57541;47.408;18.822;2023-12-29T03:22:14;0.64;99.99
70166;SHT30;57541;47.408;18.822;2023-12-29T03:22:46;0.57;99.99
70166;SHT30;57541;47.408;18.822;2023-12-29T03:23:20;0.59;99.99
70166;SHT30;57541;47.408;18.822;2023-12-29T03:23:51;0.57;99.99
70166;SHT30;57541;47.408;18.822;2023-12-29T03:24:23;0.49;99.99
70166;SHT30;57541;47.408;18.822;2023-12-29T03:24:55;0.52;99.99
70166;SHT30;57541;47.408;18.822;2023-12-29T03:25:29;0.56;99.99
70166;SHT30;57541;47.408;18.822;2023-12-29T03:26:01;0.59;99.99
70166;SHT30;57541;47.408;18.822;2023-12-29T03:26:32;0.55;99.99
70166;SHT30;57541;47.408;18.822;2023-12-29T03:27:04;0.52;99.99
70166;SHT30;57541;47.408;18.822;2023-12-29T03:27:36;0.56;99.99
70166;SHT30;57541;47.408;18.822;2023-12-29T03:28:08;0.53;99.99
70166;SHT30;57541;47.408;18.822;2023-12-29T03:28:40;0.59;99.99